Time;durP1;ratioP1;P1;durP2;ratioP2;P2;SDS_P1;SDS_P2;PMS_P1;PMS_P2;Temp;Humidity;BMP_temperature;BMP_pressure;BME280_temperature;BME280_humidity;BME280_pressure;Samples;Min_cycle;Max_cycle;Signal;HPM_P1;HPM_P2
2021/11/20 00:00:38;;;;;;;;;;;;;;;10.28;100.00;102832.34;5065768;28;19928;-47
2021/11/20 00:03:05;;;;;;;;;;;;;;;10.26;100.00;102840.28;5051478;28;19951;-46
2021/11/20 00:05:33;;;;;;;;;;;;;;;10.25;100.00;102832.47;5051797;28;20368;-49
2021/11/20 00:08:01;;;;;;;;;;;;;;;10.26;100.00;102831.56;5051936;28;20422;-46
2021/11/20 00:10:28;;;;;;;;;;;;;;;10.28;100.00;102830.59;5050237;28;20352;-50
2021/11/20 00:12:55;;;;;;;;;;;;;;;10.24;100.00;102834.25;5054781;28;20375;-48
2021/11/20 00:15:24;;;;;;;;;;;;;;;10.22;100.00;102835.19;5035196;28;19929;-48
2021/11/20 00:17:50;;;;;;;;;;;;;;;10.26;100.00;102832.41;5066814;28;19925;-44
2021/11/20 00:20:18;;;;;;;;;;;;;;;10.28;100.00;102827.09;5052919;28;19931;-49
2021/11/20 00:22:46;;;;;;;;;;;;;;;10.26;100.00;102814.00;5054422;28;20358;-47
2021/11/20 00:25:20;;;;;;;;;;;;;;;10.23;100.00;102821.16;5069792;28;19929;-46
2021/11/20 00:27:48;;;;;;;;;;;;;;;10.23;100.00;102827.25;5054502;28;19931;-48
2021/11/20 00:30:17;;;;;;;;;;;;;;;10.20;100.00;102823.84;5054115;28;20280;-46
2021/11/20 00:32:45;;;;;;;;;;;;;;;10.21;100.00;102812.44;5054083;28;20015;-47
2021/11/20 00:35:14;;;;;;;;;;;;;;;10.19;100.00;102804.59;5050771;28;19974;-47
2021/11/20 00:37:41;;;;;;;;;;;;;;;10.20;100.00;102808.94;5051441;28;19944;-49
2021/11/20 00:40:10;;;;;;;;;;;;;;;10.15;100.00;102806.44;5053836;28;20299;-48
2021/11/20 00:42:36;;;;;;;;;;;;;;;10.11;100.00;102814.50;5052419;28;20299;-48
2021/11/20 00:45:03;;;;;;;;;;;;;;;10.16;100.00;102817.84;5051516;28;20251;-46
2021/11/20 00:47:30;;;;;;;;;;;;;;;10.15;100.00;102810.88;5050134;28;19955;-47
2021/11/20 00:49:57;;;;;;;;;;;;;;;10.14;100.00;102812.66;5053457;28;20023;-47
2021/11/20 00:52:25;;;;;;;;;;;;;;;10.15;100.00;102813.50;5066397;28;19947;-49
2021/11/20 00:54:51;;;;;;;;;;;;;;;10.14;100.00;102811.75;5050862;28;19925;-44
2021/11/20 00:57:18;;;;;;;;;;;;;;;10.13;100.00;102802.19;5053535;28;19924;-47
2021/11/20 00:59:45;;;;;;;;;;;;;;;10.14;100.00;102809.13;5053573;28;19925;-47
2021/11/20 01:02:11;;;;;;;;;;;;;;;10.10;100.00;102803.13;5050822;28;20375;-47
2021/11/20 01:04:38;;;;;;;;;;;;;;;10.12;100.00;102800.44;5065681;28;19963;-50
2021/11/20 01:07:06;;;;;;;;;;;;;;;10.12;100.00;102798.66;5051979;28;19925;-49
2021/11/20 01:09:34;;;;;;;;;;;;;;;10.15;100.00;102797.72;5052905;28;19940;-46
2021/11/20 01:12:03;;;;;;;;;;;;;;;10.13;100.00;102789.88;5053268;28;19967;-44
2021/11/20 01:14:30;;;;;;;;;;;;;;;10.13;100.00;102792.50;5050244;28;19951;-46
2021/11/20 01:16:57;;;;;;;;;;;;;;;10.12;100.00;102790.78;5064860;28;19929;-51
2021/11/20 01:19:24;;;;;;;;;;;;;;;10.09;100.00;102783.00;5052731;28;20004;-48
2021/11/20 01:21:52;;;;;;;;;;;;;;;10.13;100.00;102787.25;5065745;28;20358;-49
2021/11/20 01:24:18;;;;;;;;;;;;;;;10.16;100.00;102788.94;5049050;28;19929;-47
2021/11/20 01:26:45;;;;;;;;;;;;;;;10.13;100.00;102784.63;5049354;28;20340;-47
2021/11/20 01:29:13;;;;;;;;;;;;;;;10.12;100.00;102788.16;5051146;28;20332;-51
2021/11/20 01:31:40;;;;;;;;;;;;;;;10.10;100.00;102770.72;5052895;28;19929;-51
2021/11/20 01:34:07;;;;;;;;;;;;;;;10.12;100.00;102776.78;5049636;28;20303;-47
2021/11/20 01:36:35;;;;;;;;;;;;;;;10.08;100.00;102780.44;5049449;28;20016;-50
2021/11/20 01:39:04;;;;;;;;;;;;;;;10.06;100.00;102780.47;5065944;28;20418;-47
2021/11/20 01:41:31;;;;;;;;;;;;;;;10.04;100.00;102774.41;5049846;28;20387;-47
2021/11/20 01:44:06;;;;;;;;;;;;;;;10.05;100.00;102772.63;5048935;28;19925;-49
2021/11/20 01:46:32;;;;;;;;;;;;;;;10.05;100.00;102777.88;5049907;28;19936;-51
2021/11/20 01:48:59;;;;;;;;;;;;;;;10.05;100.00;102767.34;5065599;28;20365;-49
2021/11/20 01:51:26;;;;;;;;;;;;;;;10.08;100.00;102775.16;5049560;28;19925;-48
2021/11/20 01:54:12;;;;;;;;;;;;;;;10.08;100.00;102767.28;5050738;28;19929;-51
2021/11/20 01:56:45;;;;;;;;;;;;;;;10.07;100.00;102765.56;5050546;28;19979;-51
2021/11/20 01:59:15;;;;;;;;;;;;;;;10.08;100.00;102769.91;5053136;28;19925;-48
2021/11/20 02:01:43;;;;;;;;;;;;;;;10.08;100.00;102765.50;5068350;28;19928;-52
2021/11/20 02:04:36;;;;;;;;;;;;;;;10.07;100.00;102762.94;5067506;28;19928;-49
2021/11/20 02:07:18;;;;;;;;;;;;;;;10.05;100.00;102770.88;5050350;28;19998;-51
2021/11/20 02:09:51;;;;;;;;;;;;;;;10.04;100.00;102758.63;5050719;28;20360;-51
2021/11/20 02:12:21;;;;;;;;;;;;;;;10.04;100.00;102753.38;5068077;28;19929;-48
2021/11/20 02:14:48;;;;;;;;;;;;;;;10.01;100.00;102748.22;5052759;28;20027;-51
2021/11/20 02:17:17;;;;;;;;;;;;;;;10.01;100.00;102748.22;5050819;28;19925;-52
2021/11/20 02:19:45;;;;;;;;;;;;;;;10.01;100.00;102752.59;5050118;28;20019;-51
2021/11/20 02:22:17;;;;;;;;;;;;;;;9.99;100.00;102752.66;5067632;28;19933;-51
2021/11/20 02:24:44;;;;;;;;;;;;;;;9.98;100.00;102743.91;5049577;28;19953;-50
2021/11/20 02:27:11;;;;;;;;;;;;;;;10.00;100.00;102740.38;5050478;28;19931;-48
2021/11/20 02:29:45;;;;;;;;;;;;;;;9.98;100.00;102743.91;5047491;28;20348;-52
2021/11/20 02:32:13;;;;;;;;;;;;;;;9.98;100.00;102738.66;5051840;28;19947;-52
2021/11/20 02:34:40;;;;;;;;;;;;;;;10.01;100.00;102735.06;5049978;28;19968;-51
2021/11/20 02:37:07;;;;;;;;;;;;;;;10.01;100.00;102726.31;5050285;28;19924;-47
2021/11/20 02:39:34;;;;;;;;;;;;;;;9.99;100.00;102731.63;5049428;28;19948;-47
2021/11/20 02:42:03;;;;;;;;;;;;;;;9.99;100.00;102729.00;5049986;28;19939;-48
2021/11/20 02:44:29;;;;;;;;;;;;;;;10.01;100.00;102727.19;5068926;28;20334;-48
2021/11/20 02:47:00;;;;;;;;;;;;;;;9.98;100.00;102722.03;5053804;28;20306;-49
2021/11/20 02:49:27;;;;;;;;;;;;;;;9.96;100.00;102721.22;5053517;28;19924;-51
2021/11/20 02:52:03;;;;;;;;;;;;;;;9.94;100.00;102723.91;5069369;28;19955;-48
2021/11/20 02:54:30;;;;;;;;;;;;;;;9.94;100.00;102725.69;5068441;28;19925;-49
2021/11/20 02:57:04;;;;;;;;;;;;;;;9.94;100.00;102721.28;5053903;28;19929;-47
2021/11/20 02:59:31;;;;;;;;;;;;;;;9.91;100.00;102720.50;5053044;28;19925;-50
2021/11/20 03:01:57;;;;;;;;;;;;;;;9.89;100.00;102714.44;5055269;28;19978;-51
2021/11/20 03:04:25;;;;;;;;;;;;;;;9.90;100.00;102714.41;5051818;28;19959;-48
2021/11/20 03:06:53;;;;;;;;;;;;;;;9.88;100.00;102710.94;5053835;28;19966;-48
2021/11/20 03:09:22;;;;;;;;;;;;;;;9.90;100.00;102703.88;5053393;28;19944;-50
2021/11/20 03:11:48;;;;;;;;;;;;;;;9.95;100.00;102703.72;5052958;28;19948;-46
2021/11/20 03:14:16;;;;;;;;;;;;;;;9.91;100.00;102696.84;5055145;28;19970;-50
2021/11/20 03:16:47;;;;;;;;;;;;;;;9.85;100.00;102702.31;5052111;28;20398;-49
2021/11/20 03:19:13;;;;;;;;;;;;;;;9.84;100.00;102701.44;5052068;28;19925;-48
2021/11/20 03:21:42;;;;;;;;;;;;;;;9.84;100.00;102698.81;5053293;28;19929;-49
2021/11/20 03:24:09;;;;;;;;;;;;;;;9.83;100.00;102699.75;5052919;28;20459;-50
2021/11/20 03:26:36;;;;;;;;;;;;;;;9.84;100.00;102704.06;5053087;28;19925;-52
2021/11/20 03:29:02;;;;;;;;;;;;;;;9.85;100.00;102700.53;5050750;28;20023;-50
2021/11/20 03:31:29;;;;;;;;;;;;;;;9.85;100.00;102700.53;5051960;28;20323;-49
2021/11/20 03:33:56;;;;;;;;;;;;;;;9.85;100.00;102697.91;5068102;28;19975;-51
2021/11/20 03:36:22;;;;;;;;;;;;;;;9.80;100.00;102695.44;5051917;28;20011;-48
2021/11/20 03:38:49;;;;;;;;;;;;;;;9.80;100.00;102687.56;5053452;28;19968;-53
2021/11/20 03:41:16;;;;;;;;;;;;;;;9.74;100.00;102693.00;5068197;28;20389;-52
2021/11/20 03:43:43;;;;;;;;;;;;;;;9.79;100.00;102688.47;5053277;28;20382;-50
2021/11/20 03:46:09;;;;;;;;;;;;;;;9.78;100.00;102689.38;5069602;28;19925;-52
2021/11/20 03:48:36;;;;;;;;;;;;;;;9.77;100.00;102692.91;5052450;28;19933;-48
2021/11/20 03:51:03;;;;;;;;;;;;;;;9.78;100.00;102688.50;5051478;28;19994;-50
2021/11/20 03:53:30;;;;;;;;;;;;;;;9.78;100.00;102680.63;5054487;28;19932;-47
2021/11/20 03:55:57;;;;;;;;;;;;;;;9.79;100.00;102674.47;5069639;28;19971;-46
2021/11/20 03:58:24;;;;;;;;;;;;;;;9.81;100.00;102684.00;5054796;28;20379;-50
2021/11/20 04:00:52;;;;;;;;;;;;;;;9.81;100.00;102681.38;5054741;28;19928;-50
2021/11/20 04:03:22;;;;;;;;;;;;;;;9.75;100.00;102678.97;5067882;28;19929;-47
2021/11/20 04:05:50;;;;;;;;;;;;;;;9.77;100.00;102681.53;5051719;28;19982;-45
2021/11/20 04:08:16;;;;;;;;;;;;;;;9.79;100.00;102685.00;5051931;28;19932;-45
2021/11/20 04:10:45;;;;;;;;;;;;;;;9.78;100.00;102684.09;5051732;28;19964;-50
2021/11/20 04:13:11;;;;;;;;;;;;;;;9.75;100.00;102678.13;5068071;28;19933;-51
2021/11/20 04:15:38;;;;;;;;;;;;;;;9.75;100.00;102684.22;5054555;28;19991;-45
2021/11/20 04:18:05;;;;;;;;;;;;;;;9.76;100.00;102685.06;5052176;28;20038;-45
2021/11/20 04:20:33;;;;;;;;;;;;;;;9.77;100.00;102686.78;5051764;28;19935;-47
2021/11/20 04:22:59;;;;;;;;;;;;;;;9.76;100.00;102680.69;5052841;28;19948;-45
2021/11/20 04:25:26;;;;;;;;;;;;;;;9.75;100.00;102683.38;5069440;28;19971;-46
2021/11/20 04:27:53;;;;;;;;;;;;;;;9.74;100.00;102671.13;5069407;28;19932;-46
2021/11/20 04:30:22;;;;;;;;;;;;;;;9.74;100.00;102676.38;5049992;28;19925;-45
2021/11/20 04:32:49;;;;;;;;;;;;;;;9.75;100.00;102672.84;5050950;28;19925;-47
2021/11/20 04:35:16;;;;;;;;;;;;;;;9.70;100.00;102666.88;5051355;28;19933;-50
2021/11/20 04:37:43;;;;;;;;;;;;;;;9.72;100.00;102675.56;5051703;28;19983;-47
2021/11/20 04:40:10;;;;;;;;;;;;;;;9.72;100.00;102673.81;5049983;28;19925;-47
2021/11/20 04:42:37;;;;;;;;;;;;;;;9.71;100.00;102664.22;5066124;28;19924;-48
2021/11/20 04:45:05;;;;;;;;;;;;;;;9.72;100.00;102668.56;5049171;28;19925;-50
2021/11/20 04:47:31;;;;;;;;;;;;;;;9.72;100.00;102658.06;5065820;28;19932;-49
2021/11/20 04:49:58;;;;;;;;;;;;;;;9.73;100.00;102665.00;5050792;28;19925;-48
2021/11/20 04:52:25;;;;;;;;;;;;;;;9.72;100.00;102662.44;5050700;28;19932;-48
2021/11/20 04:54:51;;;;;;;;;;;;;;;9.73;100.00;102666.78;5066146;28;19932;-48
2021/11/20 04:57:27;;;;;;;;;;;;;;;9.71;100.00;102668.63;5052785;28;20340;-52
2021/11/20 04:59:54;;;;;;;;;;;;;;;9.73;100.00;102664.16;5049633;28;20006;-46
2021/11/20 05:02:21;;;;;;;;;;;;;;;9.72;100.00;102659.81;5049601;28;20393;-50
2021/11/20 05:04:48;;;;;;;;;;;;;;;9.70;100.00;102664.25;5052199;28;20027;-49
2021/11/20 05:07:16;;;;;;;;;;;;;;;9.71;100.00;102661.56;5052955;28;19925;-48
2021/11/20 05:09:42;;;;;;;;;;;;;;;9.69;100.00;102663.38;5053820;28;19932;-45
2021/11/20 05:12:09;;;;;;;;;;;;;;;9.67;100.00;102664.34;5053410;28;19932;-49
2021/11/20 05:14:36;;;;;;;;;;;;;;;9.68;100.00;102661.69;5065017;28;20343;-47
2021/11/20 05:17:03;;;;;;;;;;;;;;;9.68;100.00;102666.06;5065832;28;19979;-51
2021/11/20 05:19:30;;;;;;;;;;;;;;;9.69;100.00;102663.38;5049849;28;19928;-48
2021/11/20 05:21:57;;;;;;;;;;;;;;;9.66;100.00;102663.50;5051047;28;20324;-47
2021/11/20 05:24:24;;;;;;;;;;;;;;;9.66;100.00;102654.75;5065295;28;19924;-49
2021/11/20 05:26:53;;;;;;;;;;;;;;;9.66;100.00;102649.50;5065721;28;19928;-48
2021/11/20 05:29:29;;;;;;;;;;;;;;;9.64;100.00;102650.41;5049107;28;20406;-46
2021/11/20 05:31:56;;;;;;;;;;;;;;;9.66;100.00;102641.63;5049728;28;19932;-46
2021/11/20 05:34:23;;;;;;;;;;;;;;;9.67;100.00;102638.94;5050181;28;19951;-50
2021/11/20 05:36:50;;;;;;;;;;;;;;;9.66;100.00;102639.00;5053273;28;19925;-49
2021/11/20 05:39:17;;;;;;;;;;;;;;;9.63;100.00;102638.19;5052902;28;19924;-47
2021/11/20 05:41:44;;;;;;;;;;;;;;;9.60;100.00;102633.03;5052768;28;19925;-47
2021/11/20 05:44:13;;;;;;;;;;;;;;;9.61;100.00;102629.50;5049201;28;19928;-50
2021/11/20 05:46:40;;;;;;;;;;;;;;;9.63;100.00;102632.91;5064427;28;19924;-49
2021/11/20 05:49:07;;;;;;;;;;;;;;;9.62;100.00;102623.31;5049893;28;19929;-48
2021/11/20 05:51:36;;;;;;;;;;;;;;;9.61;100.00;102623.38;5066832;28;19925;-48
2021/11/20 05:54:05;;;;;;;;;;;;;;;9.61;100.00;102624.25;5052979;28;20364;-48
2021/11/20 05:56:32;;;;;;;;;;;;;;;9.61;100.00;102626.88;5053010;28;19929;-50
2021/11/20 05:59:19;;;;;;;;;;;;;;;9.64;100.00;102624.13;5065535;28;20015;-50
2021/11/20 06:01:46;;;;;;;;;;;;;;;9.61;100.00;102621.63;5051070;28;19924;-48
2021/11/20 06:04:14;;;;;;;;;;;;;;;9.60;100.00;102616.41;5049980;28;19966;-51
2021/11/20 06:06:41;;;;;;;;;;;;;;;9.62;100.00;102617.22;5067563;28;20264;-52
2021/11/20 06:09:08;;;;;;;;;;;;;;;9.61;100.00;102613.75;5052308;28;19967;-46
2021/11/20 06:11:35;;;;;;;;;;;;;;;9.64;100.00;102613.63;5049769;28;19972;-48
2021/11/20 06:14:02;;;;;;;;;;;;;;;9.63;100.00;102611.91;5048603;28;20896;-49
2021/11/20 06:16:28;;;;;;;;;;;;;;;9.62;100.00;102602.28;5048795;28;19984;-48
2021/11/20 06:18:55;;;;;;;;;;;;;;;9.59;100.00;102602.41;5049511;28;19928;-45
2021/11/20 06:21:22;;;;;;;;;;;;;;;9.58;100.00;102595.44;5054243;28;19935;-48
2021/11/20 06:23:49;;;;;;;;;;;;;;;9.59;100.00;102597.16;5053506;28;19935;-45
2021/11/20 06:26:17;;;;;;;;;;;;;;;9.59;100.00;102596.31;5052614;28;20441;-49
2021/11/20 06:28:44;;;;;;;;;;;;;;;9.58;100.00;102592.81;5052707;28;19929;-49
2021/11/20 06:31:10;;;;;;;;;;;;;;;9.56;100.00;102588.53;5069254;28;20376;-49
2021/11/20 06:33:37;;;;;;;;;;;;;;;9.54;100.00;102582.47;5054114;28;19933;-52
2021/11/20 06:36:04;;;;;;;;;;;;;;;9.53;100.00;102584.25;5055114;28;20319;-51
2021/11/20 06:38:31;;;;;;;;;;;;;;;9.51;100.00;102588.66;5055073;28;19929;-48
2021/11/20 06:41:00;;;;;;;;;;;;;;;9.50;100.00;102592.19;5069449;28;19924;-48
2021/11/20 06:43:27;;;;;;;;;;;;;;;9.50;100.00;102584.31;5053701;28;19929;-53
2021/11/20 06:45:55;;;;;;;;;;;;;;;9.54;100.00;102588.56;5052270;28;20264;-49
2021/11/20 06:48:22;;;;;;;;;;;;;;;9.53;100.00;102586.00;5055904;28;19929;-50
2021/11/20 06:50:51;;;;;;;;;;;;;;;9.55;100.00;102595.53;5053598;28;19994;-48
2021/11/20 06:53:18;;;;;;;;;;;;;;;9.57;99.71;102591.09;5053999;28;20376;-51
2021/11/20 06:55:46;;;;;;;;;;;;;;;9.56;99.70;102599.03;5053338;28;20395;-50
2021/11/20 07:00:45;;;;;;;;;;;;;;;9.51;99.67;102587.81;5067601;28;20669;-50
2021/11/20 07:03:16;;;;;;;;;;;;;;;9.50;99.34;102591.34;5054962;28;20446;-49
2021/11/20 07:05:47;;;;;;;;;;;;;;;9.48;99.67;102587.00;5052483;28;20550;-47
2021/11/20 07:08:14;;;;;;;;;;;;;;;9.49;99.10;102598.38;5052941;28;19931;-48
2021/11/20 07:10:42;;;;;;;;;;;;;;;9.49;99.71;102603.63;5052965;28;20376;-46
2021/11/20 07:13:10;;;;;;;;;;;;;;;9.47;99.67;102605.44;5053475;28;19936;-48
2021/11/20 07:15:37;;;;;;;;;;;;;;;9.50;99.22;102604.47;5054419;28;19925;-48
2021/11/20 07:18:04;;;;;;;;;;;;;;;9.51;98.71;102598.31;5052987;28;19929;-48
2021/11/20 07:20:31;;;;;;;;;;;;;;;9.57;97.96;102599.00;5052059;28;20272;-44
2021/11/20 07:22:58;;;;;;;;;;;;;;;9.59;98.34;102593.69;5068130;28;20241;-47
2021/11/20 07:25:28;;;;;;;;;;;;;;;9.56;98.49;102596.41;5051813;28;19929;-48
2021/11/20 07:27:55;;;;;;;;;;;;;;;9.55;98.53;102590.28;5053097;28;19925;-47
2021/11/20 07:30:22;;;;;;;;;;;;;;;9.54;97.77;102591.19;5049599;28;19924;-48
2021/11/20 07:32:49;;;;;;;;;;;;;;;9.54;97.98;102591.19;5068154;28;19925;-51
2021/11/20 07:35:43;;;;;;;;;;;;;;;9.55;97.75;102587.66;5052030;28;20410;-48
2021/11/20 07:38:10;;;;;;;;;;;;;;;9.55;98.05;102582.41;5052469;28;19924;-49
2021/11/20 07:40:37;;;;;;;;;;;;;;;9.53;98.50;102589.50;5052086;28;20411;-48
2021/11/20 07:43:04;;;;;;;;;;;;;;;9.53;98.33;102584.25;5052715;28;19964;-49
2021/11/20 07:45:31;;;;;;;;;;;;;;;9.60;98.01;102584.91;5065153;28;19925;-48
2021/11/20 07:48:17;;;;;;;;;;;;;;;9.54;98.19;102578.06;5052823;28;20039;-49
2021/11/20 07:50:45;;;;;;;;;;;;;;;9.54;97.88;102570.16;5051673;28;19928;-48
2021/11/20 07:53:12;;;;;;;;;;;;;;;9.50;98.25;102573.81;5051360;28;19933;-48
2021/11/20 07:55:39;;;;;;;;;;;;;;;9.53;98.04;102567.59;5066913;28;19924;-48
2021/11/20 07:58:06;;;;;;;;;;;;;;;9.49;96.82;102566.88;5067678;28;19929;-51
2021/11/20 08:00:34;;;;;;;;;;;;;;;9.51;97.36;102567.66;5050010;28;19924;-51
2021/11/20 08:03:01;;;;;;;;;;;;;;;9.55;97.50;102564.00;5052064;28;19925;-45
2021/11/20 08:05:28;;;;;;;;;;;;;;;9.55;96.87;102563.16;5069099;28;19925;-46
2021/11/20 08:07:55;;;;;;;;;;;;;;;9.56;98.07;102557.03;5053604;28;19932;-50
2021/11/20 08:10:23;;;;;;;;;;;;;;;9.57;98.08;102556.97;5053335;28;19924;-50
2021/11/20 08:12:50;;;;;;;;;;;;;;;9.57;97.99;102548.19;5069969;28;20527;-48
2021/11/20 08:15:16;;;;;;;;;;;;;;;9.59;97.78;102563.00;5067717;28;19971;-49
2021/11/20 08:17:43;;;;;;;;;;;;;;;9.55;96.80;102557.91;5052324;28;19937;-52
2021/11/20 08:20:11;;;;;;;;;;;;;;;9.61;96.49;102553.31;5054629;28;20438;-49
2021/11/20 08:22:38;;;;;;;;;;;;;;;9.60;96.84;102550.75;5054654;28;19929;-51
2021/11/20 08:25:06;;;;;;;;;;;;;;;9.61;96.57;102562.94;5053280;28;19971;-48
2021/11/20 08:27:33;;;;;;;;;;;;;;;9.62;96.10;102551.53;5050618;28;20019;-49
2021/11/20 08:30:00;;;;;;;;;;;;;;;9.60;95.70;102546.34;5049368;28;19932;-49
2021/11/20 08:32:27;;;;;;;;;;;;;;;9.58;96.10;102545.53;5053653;28;19925;-49
2021/11/20 08:34:55;;;;;;;;;;;;;;;9.58;96.06;102542.88;5051732;28;19929;-50
2021/11/20 08:37:22;;;;;;;;;;;;;;;9.58;96.08;102540.25;5052049;28;19994;-49
2021/11/20 08:39:48;;;;;;;;;;;;;;;9.60;95.99;102543.72;5051125;28;19925;-48
2021/11/20 08:42:16;;;;;;;;;;;;;;;9.63;96.25;102532.25;5050105;28;19931;-51
2021/11/20 08:44:42;;;;;;;;;;;;;;;9.63;95.94;102532.25;5048854;28;19931;-53
2021/11/20 08:47:13;;;;;;;;;;;;;;;9.58;95.90;102535.00;5066518;28;20028;-49
2021/11/20 08:49:40;;;;;;;;;;;;;;;9.64;95.65;102534.81;5051683;28;19932;-52
2021/11/20 08:52:10;;;;;;;;;;;;;;;9.62;96.50;102528.75;5051645;28;19931;-47
2021/11/20 08:54:36;;;;;;;;;;;;;;;9.61;95.79;102529.69;5054043;28;19929;-47
2021/11/20 08:57:03;;;;;;;;;;;;;;;9.62;95.93;102526.13;5054198;28;20032;-45
2021/11/20 08:59:30;;;;;;;;;;;;;;;9.64;95.77;102524.31;5050556;28;19994;-48
2021/11/20 09:02:06;;;;;;;;;;;;;;;9.61;95.87;102526.16;5050791;28;20455;-49
2021/11/20 09:04:39;;;;;;;;;;;;;;;9.64;96.18;102528.72;5050543;28;20242;-49
2021/11/20 09:07:09;;;;;;;;;;;;;;;9.70;96.14;102519.75;5066794;28;19974;-47
2021/11/20 09:09:38;;;;;;;;;;;;;;;9.67;96.08;102514.59;5051427;28;19928;-47
2021/11/20 09:12:16;;;;;;;;;;;;;;;9.67;95.41;102520.72;5049878;28;19971;-45
2021/11/20 09:14:43;;;;;;;;;;;;;;;9.71;96.23;102516.22;5050067;28;20449;-45
2021/11/20 09:17:13;;;;;;;;;;;;;;;9.69;96.63;102515.41;5053645;28;19925;-46
2021/11/20 09:19:40;;;;;;;;;;;;;;;9.72;96.09;102505.66;5052316;28;19924;-48
2021/11/20 09:22:07;;;;;;;;;;;;;;;9.77;96.52;102505.50;5053541;28;19925;-48
2021/11/20 09:24:35;;;;;;;;;;;;;;;9.74;96.16;102495.94;5049056;28;19929;-45
2021/11/20 09:27:23;;;;;;;;;;;;;;;9.81;95.51;102500.06;5049990;28;19929;-52
2021/11/20 09:29:50;;;;;;;;;;;;;;;9.86;95.75;102499.91;5053102;28;19928;-47
2021/11/20 09:32:16;;;;;;;;;;;;;;;9.81;95.50;102505.31;5068344;28;20380;-49
2021/11/20 09:34:43;;;;;;;;;;;;;;;9.85;95.78;102492.09;5053317;28;20023;-44
2021/11/20 09:37:11;;;;;;;;;;;;;;;9.82;95.39;102501.78;5052855;28;19952;-44
2021/11/20 09:39:39;;;;;;;;;;;;;;;9.84;95.77;102499.09;5053233;28;20460;-49
2021/11/20 09:42:08;;;;;;;;;;;;;;;9.83;95.20;102489.53;5068149;28;19929;-50
2021/11/20 09:44:42;;;;;;;;;;;;;;;9.85;94.75;102487.69;5052841;28;19979;-48
2021/11/20 09:47:10;;;;;;;;;;;;;;;9.93;94.53;102487.41;5068433;28;19925;-47
2021/11/20 09:49:38;;;;;;;;;;;;;;;9.93;94.37;102490.88;5066258;28;19968;-54
2021/11/20 09:52:05;;;;;;;;;;;;;;;10.01;94.18;102489.75;5065414;28;19982;-58
2021/11/20 09:54:35;;;;;;;;;;;;;;;9.98;94.47;102485.47;5066472;28;19925;-59
2021/11/20 09:57:11;;;;;;;;;;;;;;;10.00;93.93;102482.78;5050280;28;20217;-59
2021/11/20 09:59:48;;;;;;;;;;;;;;;9.98;93.96;102483.69;5048155;28;19936;-59
2021/11/20 10:02:22;;;;;;;;;;;;;;;10.03;93.04;102482.66;5049044;28;19952;-51
2021/11/20 10:04:52;;;;;;;;;;;;;;;10.04;93.64;102479.13;5047309;28;20361;-59
2021/11/20 10:07:24;;;;;;;;;;;;;;;9.98;93.42;102472.34;5049525;28;19925;-60
2021/11/20 10:09:52;;;;;;;;;;;;;;;9.96;93.76;102476.78;5065250;28;20356;-59
2021/11/20 10:12:25;;;;;;;;;;;;;;;9.96;94.34;102467.13;5067027;28;19931;-51
2021/11/20 10:14:55;;;;;;;;;;;;;;;10.05;94.57;102470.31;5046892;28;19925;-52
2021/11/20 10:17:26;;;;;;;;;;;;;;;10.06;93.78;102467.66;5048852;28;19971;-53
2021/11/20 10:19:55;;;;;;;;;;;;;;;10.07;94.15;102457.97;5048703;28;20028;-54
2021/11/20 10:22:25;;;;;;;;;;;;;;;10.07;94.37;102457.97;5051006;28;19925;-52
2021/11/20 10:25:06;;;;;;;;;;;;;;;10.05;93.93;102446.66;5052502;28;19932;-53
2021/11/20 10:27:44;;;;;;;;;;;;;;;10.11;94.42;102449.06;5047832;28;19928;-52
2021/11/20 10:30:22;;;;;;;;;;;;;;;10.10;94.65;102449.97;5046853;28;19947;-52
2021/11/20 10:32:54;;;;;;;;;;;;;;;10.05;94.54;102442.28;5064823;28;19925;-53
2021/11/20 10:35:26;;;;;;;;;;;;;;;10.08;94.77;102439.53;5066949;28;19925;-52
2021/11/20 10:38:11;;;;;;;;;;;;;;;10.13;95.02;102442.00;5050847;28;19929;-51
2021/11/20 10:40:37;;;;;;;;;;;;;;;10.13;94.49;102442.00;5049290;28;20333;-48
2021/11/20 10:43:07;;;;;;;;;;;;;;;10.16;94.17;102439.25;5047767;28;19933;-49
2021/11/20 10:45:45;;;;;;;;;;;;;;;10.12;94.17;102430.59;5049717;28;19925;-50
2021/11/20 10:48:25;;;;;;;;;;;;;;;10.19;93.65;102425.97;5064991;28;19925;-49
2021/11/20 10:51:11;;;;;;;;;;;;;;;10.24;94.10;102426.66;5048941;28;19951;-50
2021/11/20 10:53:52;;;;;;;;;;;;;;;10.25;94.26;102419.63;5048868;28;19963;-55
2021/11/20 10:56:23;;;;;;;;;;;;;;;10.28;93.99;102416.84;5051779;28;20410;-56
2021/11/20 10:58:49;;;;;;;;;;;;;;;10.25;93.78;102403.84;5048150;28;19933;-56
2021/11/20 11:01:24;;;;;;;;;;;;;;;10.31;93.67;102412.34;5048686;28;19924;-57
2021/11/20 11:04:01;;;;;;;;;;;;;;;10.25;94.31;102409.97;5065032;28;19925;-56
2021/11/20 11:06:36;;;;;;;;;;;;;;;10.19;93.65;102397.06;5069417;28;19970;-55
2021/11/20 11:09:11;;;;;;;;;;;;;;;10.22;94.07;102391.66;5055531;28;19925;-55
2021/11/20 11:11:42;;;;;;;;;;;;;;;10.31;93.87;102390.47;5052781;28;19939;-55
2021/11/20 11:14:15;;;;;;;;;;;;;;;10.32;93.91;102379.88;5054218;28;19931;-56
2021/11/20 11:16:45;;;;;;;;;;;;;;;10.29;93.98;102377.38;5055769;28;19925;-54
2021/11/20 11:19:27;;;;;;;;;;;;;;;10.31;93.98;102370.28;5068691;28;19925;-56
2021/11/20 11:22:07;;;;;;;;;;;;;;;10.28;94.62;102367.78;5052266;28;20036;-56
2021/11/20 11:24:53;;;;;;;;;;;;;;;10.37;94.23;102366.56;5051022;28;19931;-51
2021/11/20 11:27:24;;;;;;;;;;;;;;;10.31;94.17;102359.75;5052915;28;19931;-56
2021/11/20 11:30:01;;;;;;;;;;;;;;;10.40;94.29;102360.34;5066568;28;19929;-56
2021/11/20 11:32:28;;;;;;;;;;;;;;;10.38;94.93;102357.78;5070092;28;19928;-56
2021/11/20 11:34:56;;;;;;;;;;;;;;;10.40;93.36;102344.56;5051335;28;19963;-56
2021/11/20 11:37:25;;;;;;;;;;;;;;;10.42;94.15;102342.72;5054232;28;19932;-57
2021/11/20 11:39:55;;;;;;;;;;;;;;;10.44;94.31;102341.75;5055236;28;19925;-53
2021/11/20 11:42:32;;;;;;;;;;;;;;;10.47;94.02;102341.63;5067758;28;19932;-56
2021/11/20 11:45:21;;;;;;;;;;;;;;;10.43;93.63;102332.16;5049991;28;19975;-54
2021/11/20 11:48:07;;;;;;;;;;;;;;;10.39;94.45;102327.06;5067550;28;19932;-57
2021/11/20 11:51:05;;;;;;;;;;;;;;;10.40;93.67;102321.75;5051835;28;19929;-57
2021/11/20 11:53:41;;;;;;;;;;;;;;;10.39;94.00;102314.78;5050813;28;20387;-58
2021/11/20 11:56:10;;;;;;;;;;;;;;;10.44;94.63;102317.22;5050980;28;19929;-49
2021/11/20 11:58:49;;;;;;;;;;;;;;;10.51;94.36;102316.03;5051270;28;20382;-53
2021/11/20 12:01:20;;;;;;;;;;;;;;;10.52;94.23;102311.63;5050295;28;19936;-51
2021/11/20 12:03:59;;;;;;;;;;;;;;;10.46;94.18;102307.50;5052327;28;19929;-56
2021/11/20 12:06:28;;;;;;;;;;;;;;;10.49;94.95;102304.72;5053015;28;19925;-56
2021/11/20 12:09:00;;;;;;;;;;;;;;;10.49;93.52;102295.06;5052160;28;19925;-57
2021/11/20 12:11:40;;;;;;;;;;;;;;;10.47;94.42;102288.13;5050487;28;19978;-54
2021/11/20 12:14:15;;;;;;;;;;;;;;;10.47;94.55;102280.25;5065660;28;20299;-51
2021/11/20 12:16:47;;;;;;;;;;;;;;;10.49;95.11;102275.78;5049451;28;20443;-54
2021/11/20 12:19:30;;;;;;;;;;;;;;;10.47;94.80;102267.97;5052558;28;20418;-56
2021/11/20 12:22:14;;;;;;;;;;;;;;;10.48;94.19;102264.44;5051663;28;20494;-57
2021/11/20 12:24:46;;;;;;;;;;;;;;;10.47;94.80;102273.22;5067006;28;19956;-57
2021/11/20 12:27:22;;;;;;;;;;;;;;;10.47;94.52;102246.06;5053001;28;19931;-58
2021/11/20 12:30:04;;;;;;;;;;;;;;;10.47;94.62;102248.69;5050188;28;20011;-57
2021/11/20 12:32:36;;;;;;;;;;;;;;;10.36;94.85;102232.50;5066723;28;19932;-56
2021/11/20 12:35:38;;;;;;;;;;;;;;;10.46;94.92;102232.06;5051830;28;19982;-51
2021/11/20 12:38:24;;;;;;;;;;;;;;;10.52;94.89;102235.34;5048553;28;20407;-53
2021/11/20 12:40:53;;;;;;;;;;;;;;;10.48;94.39;102238.13;5051298;28;19925;-51
2021/11/20 12:43:26;;;;;;;;;;;;;;;10.51;95.06;102239.75;5051198;28;19925;-52
2021/11/20 12:46:11;;;;;;;;;;;;;;;10.45;95.05;102237.38;5051254;28;19925;-57
2021/11/20 12:48:53;;;;;;;;;;;;;;;10.50;95.17;102230.16;5053944;28;19978;-56
2021/11/20 12:51:38;;;;;;;;;;;;;;;10.45;95.19;102226.88;5050890;28;19931;-57
2021/11/20 12:54:28;;;;;;;;;;;;;;;10.45;94.60;102216.34;5052245;28;19935;-51